createdAt,value
2023-05-22T00:01:37.664Z,68.20
2023-05-22T00:04:04.609Z,68.10
2023-05-22T00:06:31.596Z,68.10
2023-05-22T00:08:58.210Z,67.90
2023-05-22T00:11:24.937Z,68.00
2023-05-22T00:13:51.657Z,70.10
2023-05-22T00:16:18.305Z,68.00
2023-05-22T00:18:45.028Z,68.80
2023-05-22T00:21:11.773Z,72.80
2023-05-22T00:23:38.468Z,68.10
2023-05-22T00:26:05.251Z,68.80
2023-05-22T00:28:31.882Z,68.60
2023-05-22T00:30:58.532Z,69.40
2023-05-22T00:33:25.257Z,68.80
2023-05-22T00:35:51.915Z,69.00
2023-05-22T00:38:29.380Z,68.30
2023-05-22T00:40:56.028Z,69.60
2023-05-22T00:43:22.645Z,69.50
2023-05-22T00:45:49.264Z,69.60
2023-05-22T00:48:15.895Z,69.20
2023-05-22T00:50:42.708Z,68.10
2023-05-22T00:53:09.916Z,68.00
2023-05-22T00:55:36.776Z,68.80
2023-05-22T00:58:07.563Z,68.80
2023-05-22T01:00:36.983Z,68.40
2023-05-22T01:03:05.546Z,68.10
2023-05-22T01:05:32.235Z,70.70
2023-05-22T01:07:58.879Z,71.20
2023-05-22T01:10:25.964Z,68.80
2023-05-22T01:12:59.928Z,67.90
2023-05-22T01:15:35.341Z,69.50
2023-05-22T01:18:12.459Z,70.90
2023-05-22T01:20:43.424Z,69.10
2023-05-22T01:23:10.041Z,69.10
2023-05-22T01:25:39.642Z,69.20
2023-05-22T01:28:35.636Z,70.00
2023-05-22T01:31:04.526Z,70.90
2023-05-22T01:33:33.421Z,71.30
2023-05-22T01:36:01.091Z,70.50
2023-05-22T01:38:27.848Z,70.80
2023-05-22T01:40:55.056Z,70.70
2023-05-22T01:43:21.966Z,70.50
2023-05-22T01:45:49.121Z,70.60
2023-05-22T01:48:16.168Z,70.20
2023-05-22T01:50:42.944Z,70.10
2023-05-22T01:53:18.342Z,71.00
2023-05-22T01:55:47.695Z,69.60
2023-05-22T01:58:33.305Z,70.40
2023-05-22T02:01:03.612Z,70.20
2023-05-22T02:03:31.786Z,70.20
2023-05-22T02:06:00.036Z,70.00
2023-05-22T02:08:27.587Z,70.50
2023-05-22T02:10:55.673Z,69.60
2023-05-22T02:13:22.776Z,70.20
2023-05-22T02:15:49.876Z,70.80
2023-05-22T02:18:16.769Z,69.80
2023-05-22T02:20:43.453Z,70.60
2023-05-22T02:23:10.075Z,70.10
2023-05-22T02:25:36.937Z,69.70
2023-05-22T02:28:03.615Z,70.00
2023-05-22T02:30:30.260Z,69.40
2023-05-22T02:32:58.324Z,70.00
2023-05-22T02:35:24.984Z,69.30
2023-05-22T02:37:51.700Z,69.80
2023-05-22T02:40:18.332Z,69.90
2023-05-22T02:42:44.945Z,70.10
2023-05-22T02:45:11.651Z,69.30
2023-05-22T02:47:38.394Z,70.20
2023-05-22T02:50:05.338Z,69.90
2023-05-22T02:52:31.947Z,69.70
2023-05-22T02:54:58.617Z,71.00
2023-05-22T02:57:25.290Z,70.70
2023-05-22T02:59:52.540Z,70.60
2023-05-22T03:02:19.849Z,69.90
2023-05-22T03:04:46.641Z,69.70
2023-05-22T03:07:13.343Z,70.60
2023-05-22T03:09:40.047Z,70.00
2023-05-22T03:12:06.934Z,70.60
2023-05-22T03:14:33.570Z,69.70
2023-05-22T03:17:00.247Z,70.60
2023-05-22T03:19:27.086Z,69.90
2023-05-22T03:21:53.954Z,70.10
2023-05-22T03:24:21.018Z,71.50
2023-05-22T03:26:47.679Z,70.20
2023-05-22T03:29:14.351Z,70.20
2023-05-22T03:31:41.116Z,70.60
2023-05-22T03:34:08.381Z,69.00
2023-05-22T03:36:35.324Z,69.40
2023-05-22T03:39:02.684Z,70.20
2023-05-22T03:41:29.546Z,70.50
2023-05-22T03:43:57.283Z,70.00
2023-05-22T03:46:24.176Z,70.10
2023-05-22T03:48:50.931Z,70.10
2023-05-22T03:51:20.016Z,70.10
2023-05-22T03:53:47.021Z,70.30
2023-05-22T03:56:13.689Z,70.70
2023-05-22T03:58:40.424Z,70.60
2023-05-22T04:01:09.943Z,71.90
2023-05-22T04:03:39.809Z,71.70
2023-05-22T04:06:07.563Z,72.10
2023-05-22T04:08:34.460Z,70.70
2023-05-22T04:11:01.345Z,70.70
2023-05-22T04:13:28.124Z,71.10
2023-05-22T04:15:56.844Z,70.60
2023-05-22T04:18:23.603Z,70.80
2023-05-22T04:20:51.831Z,72.10
2023-05-22T04:23:18.476Z,71.70
2023-05-22T04:25:47.767Z,71.10
2023-05-22T04:28:17.499Z,70.90
2023-05-22T04:30:44.316Z,72.10
2023-05-22T04:33:11.023Z,72.00
2023-05-22T04:35:37.716Z,71.90
2023-05-22T04:38:06.167Z,72.00
2023-05-22T04:40:33.925Z,71.70
2023-05-22T04:43:01.484Z,72.20
2023-05-22T04:45:28.938Z,71.30
2023-05-22T04:47:56.275Z,71.90
2023-05-22T04:50:23.850Z,72.00
2023-05-22T04:52:50.638Z,72.10
2023-05-22T04:55:17.567Z,72.00
2023-05-22T04:57:45.058Z,71.80
2023-05-22T05:00:13.962Z,72.80
2023-05-22T05:02:41.195Z,71.80
2023-05-22T05:05:08.227Z,72.20
2023-05-22T05:07:38.753Z,73.50
2023-05-22T05:10:06.276Z,71.90
2023-05-22T05:12:32.922Z,72.20
2023-05-22T05:14:59.567Z,72.10
2023-05-22T05:17:26.385Z,72.30
2023-05-22T05:19:53.368Z,72.10
2023-05-22T05:22:20.042Z,73.10
2023-05-22T05:24:46.752Z,73.00
2023-05-22T05:27:13.948Z,74.10
2023-05-22T05:29:41.249Z,73.20
2023-05-22T05:32:08.268Z,73.40
2023-05-22T05:34:35.173Z,73.30
2023-05-22T05:37:02.718Z,74.00
2023-05-22T05:39:29.738Z,73.30
2023-05-22T05:41:56.520Z,73.30
2023-05-22T05:44:23.160Z,73.20
2023-05-22T05:46:49.911Z,73.50
2023-05-22T05:49:16.549Z,73.10
2023-05-22T05:51:43.242Z,73.30
2023-05-22T05:54:10.150Z,72.80
2023-05-22T05:56:37.584Z,73.40
2023-05-22T05:59:04.319Z,73.60
2023-05-22T06:01:35.137Z,73.30
2023-05-22T06:04:03.449Z,73.10
2023-05-22T06:06:30.877Z,73.70
2023-05-22T06:08:57.570Z,73.40
2023-05-22T06:11:24.195Z,74.20
2023-05-22T06:13:50.819Z,73.10
2023-05-22T06:16:17.513Z,73.80
2023-05-22T06:18:46.192Z,75.70
2023-05-22T06:21:12.832Z,73.50
2023-05-22T06:23:39.422Z,73.30
2023-05-22T06:26:06.061Z,73.70
2023-05-22T06:28:32.739Z,73.50
2023-05-22T06:30:59.487Z,73.80
2023-05-22T06:33:26.252Z,73.70
2023-05-22T06:35:52.956Z,74.30
2023-05-22T06:38:19.604Z,73.80
2023-05-22T06:40:46.257Z,74.40
2023-05-22T06:43:12.935Z,73.70
2023-05-22T06:45:39.716Z,73.40
2023-05-22T06:48:06.552Z,74.20
2023-05-22T06:50:33.252Z,84.60
2023-05-22T06:53:00.186Z,78.40
2023-05-22T06:55:26.830Z,77.60
2023-05-22T06:57:53.581Z,76.40
2023-05-22T07:00:21.978Z,79.00
2023-05-22T07:02:49.308Z,81.10
2023-05-22T07:05:16.036Z,80.30
2023-05-22T07:07:43.487Z,84.50
2023-05-22T07:10:10.360Z,79.80
2023-05-22T07:12:37.240Z,79.40
2023-05-22T07:15:04.284Z,78.70
2023-05-22T07:17:31.766Z,77.10
2023-05-22T07:19:58.461Z,78.70
2023-05-22T07:22:25.297Z,76.20
2023-05-22T07:24:51.960Z,81.50
2023-05-22T07:27:18.633Z,77.50
2023-05-22T07:29:45.617Z,77.50
2023-05-22T07:32:12.239Z,76.00
2023-05-22T07:34:38.963Z,74.80
2023-05-22T07:37:09.156Z,76.00
2023-05-22T07:39:35.873Z,77.10
2023-05-22T07:42:03.128Z,77.00
2023-05-22T07:44:29.863Z,75.80
2023-05-22T07:46:56.836Z,75.40
2023-05-22T07:49:24.111Z,75.00
2023-05-22T07:51:50.798Z,74.10
2023-05-22T07:54:18.233Z,73.70
2023-05-22T07:56:45.908Z,75.40
2023-05-22T07:59:12.658Z,73.70
2023-05-22T08:01:40.207Z,77.10
2023-05-22T08:04:07.067Z,73.90
2023-05-22T08:06:36.954Z,74.50
2023-05-22T08:09:04.884Z,73.70
2023-05-22T08:11:31.670Z,73.70
2023-05-22T08:13:58.403Z,73.40
2023-05-22T08:16:25.264Z,73.20
2023-05-22T08:18:51.974Z,73.40
2023-05-22T08:21:18.752Z,72.70
2023-05-22T08:23:45.457Z,71.30
2023-05-22T08:26:12.116Z,72.10
2023-05-22T08:28:43.924Z,71.90
2023-05-22T08:31:14.923Z,70.50
2023-05-22T08:33:41.627Z,72.30
2023-05-22T08:36:08.297Z,73.70
2023-05-22T08:38:35.084Z,71.90
2023-05-22T08:41:01.913Z,71.80
2023-05-22T08:43:29.135Z,71.30
2023-05-22T08:46:04.383Z,71.50
2023-05-22T08:48:34.418Z,72.00
2023-05-22T08:51:04.778Z,69.90
2023-05-22T08:53:36.756Z,68.70
2023-05-22T08:56:05.235Z,67.80
2023-05-22T08:58:32.562Z,67.90
2023-05-22T09:00:59.424Z,70.00
2023-05-22T09:03:32.730Z,68.90
2023-05-22T09:05:59.798Z,67.80
2023-05-22T09:08:27.151Z,69.20
2023-05-22T09:10:56.096Z,68.80
2023-05-22T09:13:30.077Z,66.00
2023-05-22T09:16:00.740Z,65.60
2023-05-22T09:18:28.708Z,66.60
2023-05-22T09:20:59.041Z,66.20
2023-05-22T09:23:28.065Z,64.80
2023-05-22T09:25:59.174Z,66.20
2023-05-22T09:28:26.221Z,65.50
2023-05-22T09:30:53.934Z,66.00
2023-05-22T09:33:22.186Z,65.80
2023-05-22T09:35:51.488Z,64.50
2023-05-22T09:38:18.098Z,63.80
2023-05-22T09:40:44.771Z,64.50
2023-05-22T09:43:11.677Z,65.00
2023-05-22T09:45:38.862Z,64.30
2023-05-22T09:48:06.517Z,63.80
2023-05-22T09:50:33.265Z,63.50
2023-05-22T09:53:04.284Z,62.80
2023-05-22T09:55:32.030Z,62.90
2023-05-22T09:58:02.649Z,64.70
2023-05-22T10:00:30.055Z,63.80
2023-05-22T10:02:56.837Z,62.20
2023-05-22T10:05:24.958Z,63.30
2023-05-22T10:07:53.180Z,62.20
2023-05-22T10:10:25.718Z,63.30
2023-05-22T10:12:53.336Z,63.10
2023-05-22T10:15:20.711Z,64.20
2023-05-22T10:17:48.065Z,64.50
2023-05-22T10:20:15.450Z,62.90
2023-05-22T10:22:42.841Z,63.80
2023-05-22T10:25:10.780Z,61.50
2023-05-22T10:27:38.174Z,61.10
2023-05-22T10:30:24.377Z,62.30
2023-05-22T10:32:57.142Z,64.60
2023-05-22T10:35:27.075Z,64.60
2023-05-22T10:37:55.080Z,63.40
2023-05-22T10:40:28.692Z,62.30
2023-05-22T10:43:01.938Z,63.20
2023-05-22T10:48:06.654Z,61.00
2023-05-22T10:50:34.141Z,61.10
2023-05-22T10:53:22.488Z,61.50
2023-05-22T10:55:50.236Z,61.60
2023-05-22T10:58:17.432Z,62.60
2023-05-22T11:00:44.561Z,61.30
2023-05-22T11:03:18.023Z,60.80
2023-05-22T11:05:52.170Z,59.80
2023-05-22T11:08:27.960Z,60.40
2023-05-22T11:10:55.814Z,58.80
2023-05-22T11:13:28.258Z,60.20
2023-05-22T11:15:56.649Z,59.20
2023-05-22T11:18:23.816Z,59.10
2023-05-22T11:20:50.935Z,58.70
2023-05-22T11:23:19.436Z,58.80
2023-05-22T11:25:46.168Z,58.00
2023-05-22T11:28:12.964Z,60.80
2023-05-22T11:30:39.778Z,61.80
2023-05-22T11:33:06.722Z,59.50
2023-05-22T11:35:33.946Z,58.00
2023-05-22T11:38:03.676Z,58.90
2023-05-22T11:40:30.434Z,57.60
2023-05-22T11:42:57.134Z,56.80
2023-05-22T11:45:23.997Z,58.10
2023-05-22T11:47:50.688Z,56.60
2023-05-22T11:50:25.950Z,56.80
2023-05-22T11:53:01.686Z,55.70
2023-05-22T11:55:28.315Z,56.60
2023-05-22T11:57:55.387Z,55.00
2023-05-22T12:00:22.239Z,56.00
2023-05-22T12:02:49.097Z,54.80
2023-05-22T12:05:16.595Z,54.90
2023-05-22T12:07:43.612Z,54.70
2023-05-22T12:10:11.132Z,53.90
2023-05-22T12:12:38.325Z,53.20
2023-05-22T12:15:06.169Z,53.30
2023-05-22T12:17:35.319Z,53.00
2023-05-22T12:20:02.039Z,53.20
2023-05-22T12:22:29.754Z,54.40
2023-05-22T12:24:56.461Z,52.40
2023-05-22T12:27:23.084Z,53.20
2023-05-22T12:29:49.775Z,52.70
2023-05-22T12:32:18.134Z,53.20
2023-05-22T12:34:46.354Z,52.20
2023-05-22T12:37:22.958Z,52.90
2023-05-22T12:39:56.613Z,52.40
2023-05-22T12:42:23.896Z,52.40
2023-05-22T12:44:52.048Z,54.40
2023-05-22T12:47:18.962Z,55.20
2023-05-22T12:49:45.715Z,53.30
2023-05-22T12:52:13.177Z,54.60
2023-05-22T12:54:40.031Z,52.40
2023-05-22T12:57:06.827Z,55.30
2023-05-22T12:59:33.896Z,53.50
2023-05-22T13:02:02.358Z,52.90
2023-05-22T13:04:29.630Z,53.10
2023-05-22T13:06:59.031Z,54.50
2023-05-22T13:09:26.049Z,52.40
2023-05-22T13:11:52.765Z,53.50
2023-05-22T13:14:19.416Z,51.40
2023-05-22T13:16:46.044Z,52.10
2023-05-22T13:19:12.776Z,50.60
2023-05-22T13:21:39.470Z,52.00
2023-05-22T13:24:06.127Z,51.70
2023-05-22T13:26:32.812Z,50.60
2023-05-22T13:28:59.462Z,52.70
2023-05-22T13:31:26.214Z,51.20
2023-05-22T13:33:52.971Z,53.10
2023-05-22T13:36:19.871Z,51.10
2023-05-22T13:38:46.635Z,52.90
2023-05-22T13:41:15.362Z,51.40
2023-05-22T13:43:42.068Z,51.20
2023-05-22T13:46:08.784Z,50.40
2023-05-22T13:48:35.485Z,50.50
2023-05-22T13:51:02.160Z,49.40
2023-05-22T13:53:28.805Z,52.80
2023-05-22T13:55:55.437Z,48.60
2023-05-22T13:58:22.087Z,49.30
2023-05-22T14:00:48.698Z,47.60
2023-05-22T14:03:17.714Z,51.10
2023-05-22T14:05:45.013Z,51.20
2023-05-22T14:08:11.755Z,48.30
2023-05-22T14:10:38.716Z,47.50
2023-05-22T14:13:05.547Z,50.00
2023-05-22T14:15:32.210Z,47.80
2023-05-22T14:17:58.945Z,48.50
2023-05-22T14:20:25.614Z,47.90
2023-05-22T14:22:57.794Z,48.70
2023-05-22T14:25:25.131Z,47.90
2023-05-22T14:27:51.760Z,47.40
2023-05-22T14:30:18.629Z,47.40
2023-05-22T14:32:46.644Z,47.90
2023-05-22T14:35:13.353Z,48.50
2023-05-22T14:37:40.183Z,48.00
2023-05-22T14:40:07.320Z,48.20
2023-05-22T14:42:34.024Z,48.00
2023-05-22T14:45:00.794Z,49.20
2023-05-22T14:47:27.442Z,47.70
2023-05-22T14:49:57.674Z,48.70
2023-05-22T14:52:29.869Z,46.70
2023-05-22T14:54:56.486Z,48.00
2023-05-22T14:57:23.206Z,48.60
2023-05-22T14:59:49.869Z,47.90
2023-05-22T15:02:16.682Z,47.00
2023-05-22T15:04:44.706Z,46.90
2023-05-22T15:07:11.603Z,46.50
2023-05-22T15:09:38.250Z,46.50
2023-05-22T15:12:05.032Z,46.80
2023-05-22T15:14:31.686Z,47.10
2023-05-22T15:16:59.434Z,48.30
2023-05-22T15:19:26.351Z,46.20
2023-05-22T15:21:54.645Z,48.60
2023-05-22T15:24:24.168Z,46.80
2023-05-22T15:26:51.473Z,44.80
2023-05-22T15:29:18.184Z,45.00
2023-05-22T15:31:44.969Z,46.10
2023-05-22T15:34:11.680Z,43.20
2023-05-22T15:36:38.345Z,45.20
2023-05-22T15:39:04.973Z,44.00
2023-05-22T15:41:31.695Z,44.10
2023-05-22T15:43:58.317Z,42.80
2023-05-22T15:46:25.001Z,46.40
2023-05-22T15:48:51.665Z,46.10
2023-05-22T15:51:18.311Z,47.30
2023-05-22T15:53:44.924Z,44.40
2023-05-22T15:56:12.001Z,46.20
2023-05-22T15:58:38.688Z,49.90
2023-05-22T16:01:05.588Z,52.60
2023-05-22T16:03:32.307Z,49.40
2023-05-22T16:05:59.026Z,48.90
2023-05-22T16:08:25.968Z,48.20
2023-05-22T16:10:52.727Z,48.50
2023-05-22T16:13:19.589Z,46.60
2023-05-22T16:15:46.266Z,46.50
2023-05-22T16:18:13.187Z,45.50
2023-05-22T16:20:40.441Z,46.80
2023-05-22T16:23:07.147Z,45.90
2023-05-22T16:25:34.017Z,50.20
2023-05-22T16:28:00.766Z,48.50
2023-05-22T16:30:27.537Z,47.00
2023-05-22T16:32:54.193Z,46.20
2023-05-22T16:35:22.097Z,46.70
2023-05-22T16:37:48.869Z,49.30
2023-05-22T16:40:15.822Z,50.20
2023-05-22T16:42:42.936Z,46.80
2023-05-22T16:45:09.592Z,46.40
2023-05-22T16:47:36.337Z,46.60
2023-05-22T16:50:03.115Z,47.50
2023-05-22T16:52:30.181Z,48.60
2023-05-22T16:54:56.796Z,47.90
2023-05-22T16:57:25.929Z,47.40
2023-05-22T16:59:52.815Z,47.40
2023-05-22T17:02:19.779Z,48.00
2023-05-22T17:04:46.774Z,48.60
2023-05-22T17:07:13.393Z,47.60
2023-05-22T17:09:40.591Z,48.10
2023-05-22T17:12:07.390Z,48.20
2023-05-22T17:14:34.397Z,47.70
2023-05-22T17:17:01.119Z,48.90
2023-05-22T17:19:27.840Z,48.40
2023-05-22T17:21:54.628Z,48.40
2023-05-22T17:24:21.270Z,48.50
2023-05-22T17:26:48.991Z,49.20
2023-05-22T17:29:15.896Z,48.20
2023-05-22T17:31:42.582Z,49.90
2023-05-22T17:34:09.286Z,48.90
2023-05-22T17:36:36.951Z,48.50
2023-05-22T17:39:03.717Z,49.20
2023-05-22T17:41:30.998Z,50.00
2023-05-22T17:44:00.670Z,50.50
2023-05-22T17:46:27.632Z,49.80
2023-05-22T17:48:55.257Z,50.00
2023-05-22T17:51:22.409Z,49.80
2023-05-22T17:53:49.278Z,49.90
2023-05-22T17:56:16.712Z,49.40
2023-05-22T17:58:43.665Z,50.20
2023-05-22T18:01:10.459Z,50.00
2023-05-22T18:03:37.255Z,49.70
2023-05-22T18:06:04.581Z,50.70
2023-05-22T18:08:31.457Z,50.30
2023-05-22T18:10:59.283Z,50.10
2023-05-22T18:13:25.945Z,49.80
2023-05-22T18:15:53.192Z,51.00
2023-05-22T18:18:20.792Z,50.40
2023-05-22T18:20:47.647Z,50.80
2023-05-22T18:23:14.353Z,50.40
2023-05-22T18:25:41.463Z,50.60
2023-05-22T18:28:08.318Z,51.00
2023-05-22T18:30:35.023Z,51.70
2023-05-22T18:33:01.943Z,52.00
2023-05-22T18:35:28.781Z,51.50
2023-05-22T18:37:55.437Z,51.30
2023-05-22T18:40:22.061Z,52.30
2023-05-22T18:42:48.710Z,52.50
2023-05-22T18:45:15.511Z,52.00
2023-05-22T18:47:42.244Z,51.50
2023-05-22T18:50:09.198Z,53.80
2023-05-22T18:52:35.932Z,52.40
2023-05-22T18:55:02.642Z,52.10
2023-05-22T18:57:29.353Z,53.70
2023-05-22T18:59:56.122Z,53.20
2023-05-22T19:02:22.876Z,53.00
2023-05-22T19:04:50.400Z,53.00
2023-05-22T19:07:17.118Z,53.50
2023-05-22T19:09:43.790Z,53.50
2023-05-22T19:12:10.415Z,55.90
2023-05-22T19:14:37.036Z,53.80
2023-05-22T19:17:03.814Z,55.20
2023-05-22T19:19:30.677Z,53.90
2023-05-22T19:21:57.373Z,53.90
2023-05-22T19:24:23.959Z,55.00
2023-05-22T19:26:50.674Z,54.00
2023-05-22T19:29:17.306Z,56.00
2023-05-22T19:31:44.062Z,54.30
2023-05-22T19:34:10.850Z,53.60
2023-05-22T19:36:37.477Z,54.80
2023-05-22T19:39:05.193Z,57.20
2023-05-22T19:41:31.963Z,56.70
2023-05-22T19:43:58.606Z,55.70
2023-05-22T19:46:25.341Z,56.30
2023-05-22T19:48:52.188Z,56.30
2023-05-22T19:51:18.828Z,55.60
2023-05-22T19:53:45.607Z,56.00
2023-05-22T19:56:12.327Z,57.50
2023-05-22T19:58:39.708Z,56.10
2023-05-22T20:01:08.813Z,55.70
2023-05-22T20:03:36.273Z,55.40
2023-05-22T20:06:03.120Z,55.70
2023-05-22T20:08:30.250Z,55.90
2023-05-22T20:10:57.014Z,57.70
2023-05-22T20:13:23.634Z,56.20
2023-05-22T20:15:53.636Z,55.30
2023-05-22T20:18:22.081Z,58.30
2023-05-22T20:20:48.801Z,56.20
2023-05-22T20:23:15.675Z,56.40
2023-05-22T20:25:42.502Z,55.00
2023-05-22T20:28:09.420Z,56.10
2023-05-22T20:30:36.192Z,55.30
2023-05-22T20:33:03.056Z,56.40
2023-05-22T20:35:30.860Z,56.90
2023-05-22T20:38:02.995Z,56.70
2023-05-22T20:40:32.170Z,57.30
2023-05-22T20:43:02.321Z,57.00
2023-05-22T20:45:30.195Z,58.60
2023-05-22T20:47:56.995Z,58.70
2023-05-22T20:50:23.702Z,57.70
2023-05-22T20:52:50.387Z,57.50
2023-05-22T20:55:17.039Z,56.10
2023-05-22T20:57:43.791Z,58.10
2023-05-22T21:00:11.148Z,57.00
2023-05-22T21:02:38.901Z,56.30
2023-05-22T21:05:05.948Z,57.30
2023-05-22T21:07:32.574Z,58.70
2023-05-22T21:09:59.328Z,60.30
2023-05-22T21:12:25.942Z,57.50
2023-05-22T21:14:52.746Z,58.30
2023-05-22T21:17:19.406Z,58.90
2023-05-22T21:19:46.221Z,58.20
2023-05-22T21:22:12.878Z,57.60
2023-05-22T21:24:39.577Z,58.10
2023-05-22T21:27:06.216Z,58.00
2023-05-22T21:29:32.867Z,58.20
2023-05-22T21:31:59.559Z,59.80
2023-05-22T21:34:26.247Z,60.40
2023-05-22T21:36:52.914Z,56.70
2023-05-22T21:39:19.541Z,57.40
2023-05-22T21:41:48.055Z,58.00
2023-05-22T21:44:16.147Z,59.00
2023-05-22T21:46:42.809Z,57.20
2023-05-22T21:49:09.726Z,58.30
2023-05-22T21:51:36.715Z,58.80
2023-05-22T21:54:03.369Z,57.70
2023-05-22T21:56:29.984Z,58.10
2023-05-22T21:58:56.642Z,58.70
2023-05-22T22:01:23.359Z,57.30
2023-05-22T22:03:50.036Z,57.10
2023-05-22T22:06:16.767Z,58.80
2023-05-22T22:08:43.392Z,58.20
2023-05-22T22:11:10.020Z,57.50
2023-05-22T22:13:36.732Z,57.30
2023-05-22T22:16:03.437Z,57.00
2023-05-22T22:18:32.273Z,57.00
2023-05-22T22:21:02.102Z,57.40
2023-05-22T22:23:29.213Z,57.50
2023-05-22T22:25:56.122Z,58.20
2023-05-22T22:28:22.796Z,57.40
2023-05-22T22:30:49.525Z,58.10
2023-05-22T22:33:16.201Z,57.30
2023-05-22T22:35:43.017Z,58.40
2023-05-22T22:38:09.613Z,56.90
2023-05-22T22:40:36.307Z,57.70
2023-05-22T22:43:03.663Z,57.80
2023-05-22T22:45:30.327Z,59.60
2023-05-22T22:47:57.217Z,58.20
2023-05-22T22:50:26.799Z,57.90
2023-05-22T22:52:53.481Z,59.60
2023-05-22T22:55:20.567Z,57.40
2023-05-22T22:57:49.857Z,59.90
2023-05-22T23:00:17.380Z,59.10
2023-05-22T23:02:44.265Z,59.90
2023-05-22T23:05:11.998Z,57.90
2023-05-22T23:07:38.834Z,57.40
2023-05-22T23:10:05.805Z,59.90
2023-05-22T23:12:35.112Z,59.60
2023-05-22T23:15:02.684Z,60.20
2023-05-22T23:17:29.464Z,61.30
2023-05-22T23:19:57.112Z,59.70
2023-05-22T23:22:23.916Z,60.50
2023-05-22T23:24:50.642Z,58.80
2023-05-22T23:27:17.273Z,60.30
2023-05-22T23:29:43.961Z,59.70
2023-05-22T23:32:12.955Z,61.80
2023-05-22T23:34:42.228Z,60.90
2023-05-22T23:37:09.226Z,59.10
2023-05-22T23:39:35.949Z,59.80
2023-05-22T23:42:03.218Z,62.10
2023-05-22T23:44:30.525Z,60.60
2023-05-22T23:46:57.402Z,60.90
2023-05-22T23:49:24.055Z,62.90
2023-05-22T23:51:50.756Z,61.90
2023-05-22T23:54:19.214Z,61.30
2023-05-22T23:56:46.049Z,61.60
2023-05-22T23:59:12.747Z,61.90
